sensor_id;sensor_type;location;lat;lon;timestamp;temperature;humidity
11925;DHT22;6022;48.768;18.608;2023-01-20T00:01:32;0.60;99.90
11925;DHT22;6022;48.768;18.608;2023-01-20T00:04:00;0.80;99.90
11925;DHT22;6022;48.768;18.608;2023-01-20T00:06:27;0.50;99.90
11925;DHT22;6022;48.768;18.608;2023-01-20T00:08:57;0.90;99.90
11925;DHT22;6022;48.768;18.608;2023-01-20T00:11:29;0.60;99.90
11925;DHT22;6022;48.768;18.608;2023-01-20T00:13:59;0.70;99.90
11925;DHT22;6022;48.768;18.608;2023-01-20T00:16:28;0.90;99.90
11925;DHT22;6022;48.768;18.608;2023-01-20T00:18:56;0.60;99.90
11925;DHT22;6022;48.768;18.608;2023-01-20T00:21:24;0.60;99.90
11925;DHT22;6022;48.768;18.608;2023-01-20T00:23:51;0.90;99.90
11925;DHT22;6022;48.768;18.608;2023-01-20T00:26:20;0.60;99.90
11925;DHT22;6022;48.768;18.608;2023-01-20T00:28:52;0.70;99.90
11925;DHT22;6022;48.768;18.608;2023-01-20T00:31:23;0.90;99.90
11925;DHT22;6022;48.768;18.608;2023-01-20T00:33:57;0.30;99.90
11925;DHT22;6022;48.768;18.608;2023-01-20T00:36:27;0.50;99.90
11925;DHT22;6022;48.768;18.608;2023-01-20T00:38:57;0.50;99.90
11925;DHT22;6022;48.768;18.608;2023-01-20T00:41:24;0.70;99.90
11925;DHT22;6022;48.768;18.608;2023-01-20T00:43:51;0.70;99.90
11925;DHT22;6022;48.768;18.608;2023-01-20T00:46:19;0.60;99.90
11925;DHT22;6022;48.768;18.608;2023-01-20T00:48:48;0.30;99.90
11925;DHT22;6022;48.768;18.608;2023-01-20T00:51:15;0.40;99.90
11925;DHT22;6022;48.768;18.608;2023-01-20T00:53:43;0.30;99.90
11925;DHT22;6022;48.768;18.608;2023-01-20T00:56:10;0.30;99.90
11925;DHT22;6022;48.768;18.608;2023-01-20T00:58:37;0.50;99.90
11925;DHT22;6022;48.768;18.608;2023-01-20T01:01:04;0.30;99.90
11925;DHT22;6022;48.768;18.608;2023-01-20T01:03:31;0.40;99.90
11925;DHT22;6022;48.768;18.608;2023-01-20T01:06:11;0.50;99.90
11925;DHT22;6022;48.768;18.608;2023-01-20T01:08:42;0.40;99.90
11925;DHT22;6022;48.768;18.608;2023-01-20T01:11:11;0.20;99.90
11925;DHT22;6022;48.768;18.608;2023-01-20T01:13:39;0.10;99.90
11925;DHT22;6022;48.768;18.608;2023-01-20T01:16:14;0.10;99.90
11925;DHT22;6022;48.768;18.608;2023-01-20T01:18:42;0.00;99.90
11925;DHT22;6022;48.768;18.608;2023-01-20T01:21:12;-0.10;99.90
11925;DHT22;6022;48.768;18.608;2023-01-20T01:23:42;-0.10;99.90
11925;DHT22;6022;48.768;18.608;2023-01-20T01:26:13;0.30;99.90
11925;DHT22;6022;48.768;18.608;2023-01-20T01:28:40;0.10;99.90
11925;DHT22;6022;48.768;18.608;2023-01-20T01:31:08;0.10;99.90
11925;DHT22;6022;48.768;18.608;2023-01-20T01:33:35;0.00;99.90
11925;DHT22;6022;48.768;18.608;2023-01-20T01:36:03;0.10;99.90
11925;DHT22;6022;48.768;18.608;2023-01-20T01:38:31;0.40;99.90
11925;DHT22;6022;48.768;18.608;2023-01-20T01:40:59;0.20;99.90
11925;DHT22;6022;48.768;18.608;2023-01-20T01:43:34;0.20;99.90
11925;DHT22;6022;48.768;18.608;2023-01-20T01:46:04;0.30;99.90
11925;DHT22;6022;48.768;18.608;2023-01-20T01:48:42;0.20;99.90
11925;DHT22;6022;48.768;18.608;2023-01-20T01:51:16;0.30;99.90
11925;DHT22;6022;48.768;18.608;2023-01-20T01:54:22;0.50;99.90
11925;DHT22;6022;48.768;18.608;2023-01-20T01:56:47;0.40;99.90
11925;DHT22;6022;48.768;18.608;2023-01-20T01:59:17;0.50;99.90
11925;DHT22;6022;48.768;18.608;2023-01-20T02:01:49;0.30;99.90
11925;DHT22;6022;48.768;18.608;2023-01-20T02:04:26;0.40;99.90
11925;DHT22;6022;48.768;18.608;2023-01-20T02:07:00;0.50;99.90
11925;DHT22;6022;48.768;18.608;2023-01-20T02:09:31;0.40;99.90
11925;DHT22;6022;48.768;18.608;2023-01-20T02:12:02;0.60;99.90
11925;DHT22;6022;48.768;18.608;2023-01-20T02:14:36;1.20;99.90
11925;DHT22;6022;48.768;18.608;2023-01-20T02:31:23;0.70;99.90
11925;DHT22;6022;48.768;18.608;2023-01-20T02:37:12;0.50;99.90
11925;DHT22;6022;48.768;18.608;2023-01-20T02:39:55;0.40;99.90
11925;DHT22;6022;48.768;18.608;2023-01-20T02:42:47;0.50;99.90
11925;DHT22;6022;48.768;18.608;2023-01-20T02:45:49;0.40;99.90
11925;DHT22;6022;48.768;18.608;2023-01-20T02:48:34;0.30;99.90
11925;DHT22;6022;48.768;18.608;2023-01-20T02:51:31;0.70;99.90
11925;DHT22;6022;48.768;18.608;2023-01-20T02:54:10;0.30;99.90
11925;DHT22;6022;48.768;18.608;2023-01-20T02:56:41;0.40;99.90
11925;DHT22;6022;48.768;18.608;2023-01-20T02:59:30;0.70;99.90
11925;DHT22;6022;48.768;18.608;2023-01-20T03:02:02;0.40;99.90
11925;DHT22;6022;48.768;18.608;2023-01-20T03:04:46;0.50;99.90
11925;DHT22;6022;48.768;18.608;2023-01-20T03:07:22;0.40;99.90
11925;DHT22;6022;48.768;18.608;2023-01-20T03:09:56;0.60;99.90
11925;DHT22;6022;48.768;18.608;2023-01-20T03:12:34;0.50;99.90
11925;DHT22;6022;48.768;18.608;2023-01-20T03:15:04;0.70;99.90
11925;DHT22;6022;48.768;18.608;2023-01-20T03:17:32;0.30;99.90
11925;DHT22;6022;48.768;18.608;2023-01-20T03:20:00;0.40;99.90
11925;DHT22;6022;48.768;18.608;2023-01-20T03:22:29;0.50;99.90
11925;DHT22;6022;48.768;18.608;2023-01-20T03:24:58;0.80;99.90
11925;DHT22;6022;48.768;18.608;2023-01-20T03:27:25;0.30;99.90
11925;DHT22;6022;48.768;18.608;2023-01-20T03:29:52;0.60;99.90
11925;DHT22;6022;48.768;18.608;2023-01-20T03:32:21;0.80;99.90
11925;DHT22;6022;48.768;18.608;2023-01-20T03:34:55;0.40;99.90
11925;DHT22;6022;48.768;18.608;2023-01-20T03:37:24;0.80;99.90
11925;DHT22;6022;48.768;18.608;2023-01-20T03:39:51;0.70;99.90
11925;DHT22;6022;48.768;18.608;2023-01-20T03:42:29;0.90;99.90
11925;DHT22;6022;48.768;18.608;2023-01-20T03:45:08;0.70;99.90
11925;DHT22;6022;48.768;18.608;2023-01-20T03:53:38;0.60;99.90
11925;DHT22;6022;48.768;18.608;2023-01-20T03:56:23;1.00;99.90
11925;DHT22;6022;48.768;18.608;2023-01-20T03:58:58;1.00;99.90
11925;DHT22;6022;48.768;18.608;2023-01-20T04:01:33;0.60;99.90
11925;DHT22;6022;48.768;18.608;2023-01-20T04:04:07;1.00;99.90
11925;DHT22;6022;48.768;18.608;2023-01-20T04:06:39;0.60;99.90
11925;DHT22;6022;48.768;18.608;2023-01-20T04:09:14;0.90;99.90
11925;DHT22;6022;48.768;18.608;2023-01-20T04:11:49;0.40;99.90
11925;DHT22;6022;48.768;18.608;2023-01-20T04:14:17;1.00;99.90
11925;DHT22;6022;48.768;18.608;2023-01-20T04:16:55;0.60;99.90
11925;DHT22;6022;48.768;18.608;2023-01-20T04:19:24;1.00;99.90
11925;DHT22;6022;48.768;18.608;2023-01-20T04:22:08;0.50;99.90
11925;DHT22;6022;48.768;18.608;2023-01-20T04:24:53;0.80;99.90
11925;DHT22;6022;48.768;18.608;2023-01-20T04:27:25;0.70;99.90
11925;DHT22;6022;48.768;18.608;2023-01-20T04:29:53;0.60;99.90
11925;DHT22;6022;48.768;18.608;2023-01-20T04:32:20;0.80;99.90
11925;DHT22;6022;48.768;18.608;2023-01-20T04:34:50;0.60;99.90
11925;DHT22;6022;48.768;18.608;2023-01-20T04:37:18;0.80;99.90
11925;DHT22;6022;48.768;18.608;2023-01-20T04:39:45;0.90;99.90
11925;DHT22;6022;48.768;18.608;2023-01-20T04:42:12;1.50;99.90
11925;DHT22;6022;48.768;18.608;2023-01-20T04:44:40;0.60;99.90
11925;DHT22;6022;48.768;18.608;2023-01-20T04:47:07;0.60;99.90
11925;DHT22;6022;48.768;18.608;2023-01-20T04:49:34;0.70;99.90
11925;DHT22;6022;48.768;18.608;2023-01-20T04:52:02;0.70;99.90
11925;DHT22;6022;48.768;18.608;2023-01-20T04:54:29;0.90;99.90
11925;DHT22;6022;48.768;18.608;2023-01-20T04:56:56;0.70;99.90
11925;DHT22;6022;48.768;18.608;2023-01-20T04:59:23;0.90;99.90
11925;DHT22;6022;48.768;18.608;2023-01-20T05:01:50;0.90;99.90
11925;DHT22;6022;48.768;18.608;2023-01-20T05:04:18;0.70;99.90
11925;DHT22;6022;48.768;18.608;2023-01-20T05:06:45;0.80;99.90
11925;DHT22;6022;48.768;18.608;2023-01-20T05:09:13;0.80;99.90
11925;DHT22;6022;48.768;18.608;2023-01-20T05:11:42;0.70;99.90
11925;DHT22;6022;48.768;18.608;2023-01-20T05:14:10;0.80;99.90
11925;DHT22;6022;48.768;18.608;2023-01-20T05:16:38;0.80;99.90
11925;DHT22;6022;48.768;18.608;2023-01-20T05:19:05;0.70;99.90
11925;DHT22;6022;48.768;18.608;2023-01-20T05:21:32;1.10;99.90
11925;DHT22;6022;48.768;18.608;2023-01-20T05:23:59;0.80;99.90
11925;DHT22;6022;48.768;18.608;2023-01-20T05:26:27;0.70;99.90
11925;DHT22;6022;48.768;18.608;2023-01-20T05:28:57;0.60;99.90
11925;DHT22;6022;48.768;18.608;2023-01-20T05:31:24;0.80;99.90
11925;DHT22;6022;48.768;18.608;2023-01-20T05:33:51;0.70;99.90
11925;DHT22;6022;48.768;18.608;2023-01-20T05:36:19;0.70;99.90
11925;DHT22;6022;48.768;18.608;2023-01-20T05:38:46;0.70;99.90
11925;DHT22;6022;48.768;18.608;2023-01-20T05:41:15;0.80;99.90
11925;DHT22;6022;48.768;18.608;2023-01-20T05:43:42;0.80;99.90
11925;DHT22;6022;48.768;18.608;2023-01-20T05:46:09;0.50;99.90
11925;DHT22;6022;48.768;18.608;2023-01-20T05:48:36;0.70;99.90
11925;DHT22;6022;48.768;18.608;2023-01-20T05:51:03;0.70;99.90
11925;DHT22;6022;48.768;18.608;2023-01-20T05:53:31;0.60;99.90
11925;DHT22;6022;48.768;18.608;2023-01-20T05:56:02;0.60;99.90
11925;DHT22;6022;48.768;18.608;2023-01-20T05:58:32;0.40;99.90
11925;DHT22;6022;48.768;18.608;2023-01-20T06:01:08;0.40;99.90
11925;DHT22;6022;48.768;18.608;2023-01-20T06:03:37;0.40;99.90
11925;DHT22;6022;48.768;18.608;2023-01-20T06:06:07;0.40;99.90
11925;DHT22;6022;48.768;18.608;2023-01-20T06:08:40;0.20;99.90
11925;DHT22;6022;48.768;18.608;2023-01-20T06:11:08;0.20;99.90
11925;DHT22;6022;48.768;18.608;2023-01-20T06:13:35;0.30;99.90
11925;DHT22;6022;48.768;18.608;2023-01-20T06:16:02;0.10;99.90
11925;DHT22;6022;48.768;18.608;2023-01-20T06:18:33;0.10;99.90
11925;DHT22;6022;48.768;18.608;2023-01-20T06:21:01;0.30;99.90
11925;DHT22;6022;48.768;18.608;2023-01-20T06:23:28;0.20;99.90
11925;DHT22;6022;48.768;18.608;2023-01-20T06:26:07;0.30;99.90
11925;DHT22;6022;48.768;18.608;2023-01-20T06:28:37;0.40;99.90
11925;DHT22;6022;48.768;18.608;2023-01-20T06:31:08;0.30;99.90
11925;DHT22;6022;48.768;18.608;2023-01-20T06:33:41;0.40;99.90
11925;DHT22;6022;48.768;18.608;2023-01-20T06:36:09;0.70;99.90
11925;DHT22;6022;48.768;18.608;2023-01-20T06:38:39;0.30;99.90
11925;DHT22;6022;48.768;18.608;2023-01-20T06:41:13;0.30;99.90
11925;DHT22;6022;48.768;18.608;2023-01-20T06:43:41;0.20;99.90
11925;DHT22;6022;48.768;18.608;2023-01-20T06:46:13;0.20;99.90
11925;DHT22;6022;48.768;18.608;2023-01-20T06:48:44;0.00;99.90
11925;DHT22;6022;48.768;18.608;2023-01-20T06:51:14;-0.10;99.90
11925;DHT22;6022;48.768;18.608;2023-01-20T06:53:46;0.30;99.90
11925;DHT22;6022;48.768;18.608;2023-01-20T06:56:14;0.20;99.90
11925;DHT22;6022;48.768;18.608;2023-01-20T06:58:42;1.10;99.90
11925;DHT22;6022;48.768;18.608;2023-01-20T07:01:29;0.10;99.90
11925;DHT22;6022;48.768;18.608;2023-01-20T07:03:57;0.20;99.90
11925;DHT22;6022;48.768;18.608;2023-01-20T07:08:58;0.50;99.90
11925;DHT22;6022;48.768;18.608;2023-01-20T07:11:27;0.30;99.90
11925;DHT22;6022;48.768;18.608;2023-01-20T07:13:57;0.30;99.90
11925;DHT22;6022;48.768;18.608;2023-01-20T07:16:24;0.60;99.90
11925;DHT22;6022;48.768;18.608;2023-01-20T07:18:52;0.60;99.90
11925;DHT22;6022;48.768;18.608;2023-01-20T07:21:20;0.40;99.90
11925;DHT22;6022;48.768;18.608;2023-01-20T07:23:49;0.70;99.90
11925;DHT22;6022;48.768;18.608;2023-01-20T07:26:19;1.00;99.90
11925;DHT22;6022;48.768;18.608;2023-01-20T07:28:48;0.60;99.90
11925;DHT22;6022;48.768;18.608;2023-01-20T07:31:24;1.00;99.90
11925;DHT22;6022;48.768;18.608;2023-01-20T07:33:55;0.80;99.90
11925;DHT22;6022;48.768;18.608;2023-01-20T07:36:23;1.30;99.90
11925;DHT22;6022;48.768;18.608;2023-01-20T07:38:51;0.80;99.90
11925;DHT22;6022;48.768;18.608;2023-01-20T07:41:19;1.10;99.90
11925;DHT22;6022;48.768;18.608;2023-01-20T07:43:49;1.10;99.90
11925;DHT22;6022;48.768;18.608;2023-01-20T07:46:18;1.00;99.90
11925;DHT22;6022;48.768;18.608;2023-01-20T07:48:47;1.20;99.90
11925;DHT22;6022;48.768;18.608;2023-01-20T07:51:15;1.00;99.90
11925;DHT22;6022;48.768;18.608;2023-01-20T07:53:44;1.10;99.90
11925;DHT22;6022;48.768;18.608;2023-01-20T07:56:17;1.50;99.90
11925;DHT22;6022;48.768;18.608;2023-01-20T07:58:46;1.40;99.90
11925;DHT22;6022;48.768;18.608;2023-01-20T08:01:26;1.40;99.90
11925;DHT22;6022;48.768;18.608;2023-01-20T08:03:56;1.30;99.90
11925;DHT22;6022;48.768;18.608;2023-01-20T08:06:29;1.30;99.90
11925;DHT22;6022;48.768;18.608;2023-01-20T08:08:59;1.50;99.90
11925;DHT22;6022;48.768;18.608;2023-01-20T08:11:48;1.60;99.90
11925;DHT22;6022;48.768;18.608;2023-01-20T08:14:15;1.40;99.90
11925;DHT22;6022;48.768;18.608;2023-01-20T08:16:42;1.70;99.90
11925;DHT22;6022;48.768;18.608;2023-01-20T08:19:09;1.70;99.90
11925;DHT22;6022;48.768;18.608;2023-01-20T08:21:39;1.60;99.90
11925;DHT22;6022;48.768;18.608;2023-01-20T08:24:08;1.50;99.90
11925;DHT22;6022;48.768;18.608;2023-01-20T08:26:36;1.60;99.90
11925;DHT22;6022;48.768;18.608;2023-01-20T08:29:05;1.90;99.90
11925;DHT22;6022;48.768;18.608;2023-01-20T08:31:34;1.90;99.90
11925;DHT22;6022;48.768;18.608;2023-01-20T08:34:03;1.80;99.90
11925;DHT22;6022;48.768;18.608;2023-01-20T08:36:33;1.80;99.90
11925;DHT22;6022;48.768;18.608;2023-01-20T08:39:04;2.30;99.90
11925;DHT22;6022;48.768;18.608;2023-01-20T08:41:35;2.40;99.90
11925;DHT22;6022;48.768;18.608;2023-01-20T08:44:06;2.20;99.90
11925;DHT22;6022;48.768;18.608;2023-01-20T08:46:34;2.10;99.90
11925;DHT22;6022;48.768;18.608;2023-01-20T08:49:12;2.20;99.90
11925;DHT22;6022;48.768;18.608;2023-01-20T08:51:42;2.20;99.90
11925;DHT22;6022;48.768;18.608;2023-01-20T08:54:10;2.40;99.90
11925;DHT22;6022;48.768;18.608;2023-01-20T08:56:38;2.00;99.90
11925;DHT22;6022;48.768;18.608;2023-01-20T08:59:05;2.30;99.90
11925;DHT22;6022;48.768;18.608;2023-01-20T09:01:33;2.30;99.90
11925;DHT22;6022;48.768;18.608;2023-01-20T09:04:12;2.50;99.90
11925;DHT22;6022;48.768;18.608;2023-01-20T09:06:47;2.50;99.90
11925;DHT22;6022;48.768;18.608;2023-01-20T09:09:17;2.60;99.90
11925;DHT22;6022;48.768;18.608;2023-01-20T09:11:46;2.50;99.90
11925;DHT22;6022;48.768;18.608;2023-01-20T09:14:18;2.60;99.90
11925;DHT22;6022;48.768;18.608;2023-01-20T09:16:49;2.60;99.90
11925;DHT22;6022;48.768;18.608;2023-01-20T09:19:17;2.80;99.90
11925;DHT22;6022;48.768;18.608;2023-01-20T09:21:44;2.70;99.90
11925;DHT22;6022;48.768;18.608;2023-01-20T09:24:12;2.90;99.90
11925;DHT22;6022;48.768;18.608;2023-01-20T09:26:39;2.80;99.90
11925;DHT22;6022;48.768;18.608;2023-01-20T09:29:15;3.70;99.90
11925;DHT22;6022;48.768;18.608;2023-01-20T09:31:52;3.00;99.90
11925;DHT22;6022;48.768;18.608;2023-01-20T09:34:30;3.10;99.90
11925;DHT22;6022;48.768;18.608;2023-01-20T09:36:59;3.20;99.90
11925;DHT22;6022;48.768;18.608;2023-01-20T09:39:47;3.40;99.90
11925;DHT22;6022;48.768;18.608;2023-01-20T09:43:04;3.00;99.90
11925;DHT22;6022;48.768;18.608;2023-01-20T09:46:39;3.30;99.90
11925;DHT22;6022;48.768;18.608;2023-01-20T09:49:23;3.10;99.90
11925;DHT22;6022;48.768;18.608;2023-01-20T09:52:20;3.00;99.90
11925;DHT22;6022;48.768;18.608;2023-01-20T10:01:11;3.30;99.90
11925;DHT22;6022;48.768;18.608;2023-01-20T10:03:49;3.40;99.90
11925;DHT22;6022;48.768;18.608;2023-01-20T10:06:28;3.40;99.90
11925;DHT22;6022;48.768;18.608;2023-01-20T10:09:12;3.70;99.90
11925;DHT22;6022;48.768;18.608;2023-01-20T10:11:45;3.10;99.90
11925;DHT22;6022;48.768;18.608;2023-01-20T10:14:23;3.30;99.90
11925;DHT22;6022;48.768;18.608;2023-01-20T10:17:11;3.40;99.90
11925;DHT22;6022;48.768;18.608;2023-01-20T10:19:49;3.40;99.90
11925;DHT22;6022;48.768;18.608;2023-01-20T10:25:05;3.30;99.90
11925;DHT22;6022;48.768;18.608;2023-01-20T10:27:54;3.50;99.90
11925;DHT22;6022;48.768;18.608;2023-01-20T10:30:30;3.40;99.90
11925;DHT22;6022;48.768;18.608;2023-01-20T10:33:13;3.40;99.90
11925;DHT22;6022;48.768;18.608;2023-01-20T10:35:50;3.40;99.90
11925;DHT22;6022;48.768;18.608;2023-01-20T10:38:27;3.40;99.90
11925;DHT22;6022;48.768;18.608;2023-01-20T10:43:43;3.40;99.90
11925;DHT22;6022;48.768;18.608;2023-01-20T10:55:36;3.30;99.90
11925;DHT22;6022;48.768;18.608;2023-01-20T10:58:31;3.50;99.90
11925;DHT22;6022;48.768;18.608;2023-01-20T11:01:04;3.50;99.90
11925;DHT22;6022;48.768;18.608;2023-01-20T11:03:39;3.30;99.90
11925;DHT22;6022;48.768;18.608;2023-01-20T11:06:23;3.40;99.90
11925;DHT22;6022;48.768;18.608;2023-01-20T11:08:53;3.50;99.90
11925;DHT22;6022;48.768;18.608;2023-01-20T11:11:24;3.50;99.90
11925;DHT22;6022;48.768;18.608;2023-01-20T11:13:52;3.40;99.90
11925;DHT22;6022;48.768;18.608;2023-01-20T11:16:25;3.50;99.90
11925;DHT22;6022;48.768;18.608;2023-01-20T11:19:03;3.70;99.90
11925;DHT22;6022;48.768;18.608;2023-01-20T11:21:34;3.40;99.90
11925;DHT22;6022;48.768;18.608;2023-01-20T11:27:12;3.40;99.90
11925;DHT22;6022;48.768;18.608;2023-01-20T11:29:49;3.40;99.90
11925;DHT22;6022;48.768;18.608;2023-01-20T11:32:28;3.60;99.90
11925;DHT22;6022;48.768;18.608;2023-01-20T11:34:58;3.50;99.90
11925;DHT22;6022;48.768;18.608;2023-01-20T11:37:36;3.50;99.90
11925;DHT22;6022;48.768;18.608;2023-01-20T11:40:25;3.40;99.90
11925;DHT22;6022;48.768;18.608;2023-01-20T11:42:54;3.70;99.90
11925;DHT22;6022;48.768;18.608;2023-01-20T11:45:32;3.60;99.90
11925;DHT22;6022;48.768;18.608;2023-01-20T11:50:52;3.60;99.90
11925;DHT22;6022;48.768;18.608;2023-01-20T11:53:29;3.60;99.90
11925;DHT22;6022;48.768;18.608;2023-01-20T11:56:15;3.60;99.90
11925;DHT22;6022;48.768;18.608;2023-01-20T11:58:55;3.60;99.90
11925;DHT22;6022;48.768;18.608;2023-01-20T12:01:27;3.70;99.90
11925;DHT22;6022;48.768;18.608;2023-01-20T12:04:18;3.60;99.90
11925;DHT22;6022;48.768;18.608;2023-01-20T12:07:06;3.50;99.90
11925;DHT22;6022;48.768;18.608;2023-01-20T12:09:42;3.50;99.90
11925;DHT22;6022;48.768;18.608;2023-01-20T12:12:29;3.30;99.90
11925;DHT22;6022;48.768;18.608;2023-01-20T12:17:57;3.10;99.90
11925;DHT22;6022;48.768;18.608;2023-01-20T12:20:41;3.10;99.90
11925;DHT22;6022;48.768;18.608;2023-01-20T12:26:21;3.20;99.90
11925;DHT22;6022;48.768;18.608;2023-01-20T12:28:56;3.10;99.90
11925;DHT22;6022;48.768;18.608;2023-01-20T12:31:29;3.00;99.90
11925;DHT22;6022;48.768;18.608;2023-01-20T12:34:16;2.70;99.90
11925;DHT22;6022;48.768;18.608;2023-01-20T12:36:59;3.20;99.90
11925;DHT22;6022;48.768;18.608;2023-01-20T12:51:24;2.70;99.90
11925;DHT22;6022;48.768;18.608;2023-01-20T12:54:26;3.20;99.90
11925;DHT22;6022;48.768;18.608;2023-01-20T12:57:23;3.00;99.90
11925;DHT22;6022;48.768;18.608;2023-01-20T13:06:28;3.00;99.90
11925;DHT22;6022;48.768;18.608;2023-01-20T13:11:59;3.00;99.90
11925;DHT22;6022;48.768;18.608;2023-01-20T13:14:46;2.80;99.90
11925;DHT22;6022;48.768;18.608;2023-01-20T13:20:38;2.80;99.90
11925;DHT22;6022;48.768;18.608;2023-01-20T13:23:30;2.90;99.90
11925;DHT22;6022;48.768;18.608;2023-01-20T13:26:02;3.30;99.90
11925;DHT22;6022;48.768;18.608;2023-01-20T13:28:31;3.20;99.90
11925;DHT22;6022;48.768;18.608;2023-01-20T13:31:01;2.70;99.90
11925;DHT22;6022;48.768;18.608;2023-01-20T13:34:38;3.20;99.90
11925;DHT22;6022;48.768;18.608;2023-01-20T13:37:23;2.80;99.90
11925;DHT22;6022;48.768;18.608;2023-01-20T13:39:52;2.90;99.90
11925;DHT22;6022;48.768;18.608;2023-01-20T13:47:59;2.70;99.90
11925;DHT22;6022;48.768;18.608;2023-01-20T13:50:33;2.70;99.90
11925;DHT22;6022;48.768;18.608;2023-01-20T13:55:53;2.80;99.90
11925;DHT22;6022;48.768;18.608;2023-01-20T13:58:24;2.90;99.90
11925;DHT22;6022;48.768;18.608;2023-01-20T14:00:59;3.00;99.90
11925;DHT22;6022;48.768;18.608;2023-01-20T14:03:30;2.80;99.90
11925;DHT22;6022;48.768;18.608;2023-01-20T14:08:45;2.80;99.90
11925;DHT22;6022;48.768;18.608;2023-01-20T14:21:58;2.60;99.90
11925;DHT22;6022;48.768;18.608;2023-01-20T14:24:34;2.50;99.90
11925;DHT22;6022;48.768;18.608;2023-01-20T14:27:22;2.50;99.90
11925;DHT22;6022;48.768;18.608;2023-01-20T14:30:19;2.50;99.90
11925;DHT22;6022;48.768;18.608;2023-01-20T14:32:48;2.60;99.90
11925;DHT22;6022;48.768;18.608;2023-01-20T14:35:29;2.50;99.90
11925;DHT22;6022;48.768;18.608;2023-01-20T14:37:59;2.50;99.90
11925;DHT22;6022;48.768;18.608;2023-01-20T14:40:32;2.40;99.90
11925;DHT22;6022;48.768;18.608;2023-01-20T14:43:11;2.40;99.90
11925;DHT22;6022;48.768;18.608;2023-01-20T14:45:45;2.50;99.90
11925;DHT22;6022;48.768;18.608;2023-01-20T14:48:14;2.40;99.90
11925;DHT22;6022;48.768;18.608;2023-01-20T14:50:59;2.40;99.90
11925;DHT22;6022;48.768;18.608;2023-01-20T14:53:28;2.30;99.90
11925;DHT22;6022;48.768;18.608;2023-01-20T14:56:05;2.40;99.90
11925;DHT22;6022;48.768;18.608;2023-01-20T14:58:48;2.40;99.90
11925;DHT22;6022;48.768;18.608;2023-01-20T15:01:22;2.50;99.90
11925;DHT22;6022;48.768;18.608;2023-01-20T15:03:56;2.60;99.90
11925;DHT22;6022;48.768;18.608;2023-01-20T15:06:25;2.40;99.90
11925;DHT22;6022;48.768;18.608;2023-01-20T15:08:53;2.60;99.90
11925;DHT22;6022;48.768;18.608;2023-01-20T15:11:33;2.40;99.90
11925;DHT22;6022;48.768;18.608;2023-01-20T15:14:03;2.30;99.90
11925;DHT22;6022;48.768;18.608;2023-01-20T15:16:46;2.60;99.90
11925;DHT22;6022;48.768;18.608;2023-01-20T15:21:53;2.10;99.90
11925;DHT22;6022;48.768;18.608;2023-01-20T15:24:27;2.50;99.90
11925;DHT22;6022;48.768;18.608;2023-01-20T15:26:58;2.30;99.90
11925;DHT22;6022;48.768;18.608;2023-01-20T15:29:34;2.60;99.90
11925;DHT22;6022;48.768;18.608;2023-01-20T15:32:11;2.00;99.90
11925;DHT22;6022;48.768;18.608;2023-01-20T15:34:38;2.40;99.90
11925;DHT22;6022;48.768;18.608;2023-01-20T15:37:13;2.50;99.90
11925;DHT22;6022;48.768;18.608;2023-01-20T15:39:46;2.40;99.90
11925;DHT22;6022;48.768;18.608;2023-01-20T15:42:13;2.30;99.90
11925;DHT22;6022;48.768;18.608;2023-01-20T15:44:41;2.40;99.90
11925;DHT22;6022;48.768;18.608;2023-01-20T15:47:27;2.30;99.90
11925;DHT22;6022;48.768;18.608;2023-01-20T15:49:57;2.20;99.90
11925;DHT22;6022;48.768;18.608;2023-01-20T15:52:24;2.40;99.90
11925;DHT22;6022;48.768;18.608;2023-01-20T15:54:51;2.30;99.90
11925;DHT22;6022;48.768;18.608;2023-01-20T15:57:18;2.30;99.90
11925;DHT22;6022;48.768;18.608;2023-01-20T15:59:46;2.10;99.90
11925;DHT22;6022;48.768;18.608;2023-01-20T16:02:20;2.40;99.90
11925;DHT22;6022;48.768;18.608;2023-01-20T16:04:49;2.30;99.90
11925;DHT22;6022;48.768;18.608;2023-01-20T16:07:20;2.40;99.90
11925;DHT22;6022;48.768;18.608;2023-01-20T16:09:47;1.60;99.90
11925;DHT22;6022;48.768;18.608;2023-01-20T16:12:17;2.40;99.90
11925;DHT22;6022;48.768;18.608;2023-01-20T16:14:44;2.10;99.90
11925;DHT22;6022;48.768;18.608;2023-01-20T16:17:14;2.40;99.90
11925;DHT22;6022;48.768;18.608;2023-01-20T16:19:43;1.90;99.90
11925;DHT22;6022;48.768;18.608;2023-01-20T16:22:10;2.30;99.90
11925;DHT22;6022;48.768;18.608;2023-01-20T16:24:40;2.20;99.90
11925;DHT22;6022;48.768;18.608;2023-01-20T16:27:17;2.30;99.90
11925;DHT22;6022;48.768;18.608;2023-01-20T16:29:47;2.30;99.90
11925;DHT22;6022;48.768;18.608;2023-01-20T16:32:15;2.20;99.90
11925;DHT22;6022;48.768;18.608;2023-01-20T16:34:45;2.20;99.90
11925;DHT22;6022;48.768;18.608;2023-01-20T16:37:13;2.30;99.90
11925;DHT22;6022;48.768;18.608;2023-01-20T16:39:40;1.90;99.90
11925;DHT22;6022;48.768;18.608;2023-01-20T16:42:14;1.90;99.90
11925;DHT22;6022;48.768;18.608;2023-01-20T16:44:42;1.90;99.90
11925;DHT22;6022;48.768;18.608;2023-01-20T16:47:09;2.30;99.90
11925;DHT22;6022;48.768;18.608;2023-01-20T16:49:36;2.20;99.90
11925;DHT22;6022;48.768;18.608;2023-01-20T16:52:05;2.30;99.90
11925;DHT22;6022;48.768;18.608;2023-01-20T16:54:32;2.00;99.90
11925;DHT22;6022;48.768;18.608;2023-01-20T16:56:59;1.90;99.90
11925;DHT22;6022;48.768;18.608;2023-01-20T16:59:27;2.30;99.90
11925;DHT22;6022;48.768;18.608;2023-01-20T17:01:54;2.00;99.90
11925;DHT22;6022;48.768;18.608;2023-01-20T17:04:22;2.00;99.90
11925;DHT22;6022;48.768;18.608;2023-01-20T17:06:51;2.00;99.90
11925;DHT22;6022;48.768;18.608;2023-01-20T17:09:18;2.30;99.90
11925;DHT22;6022;48.768;18.608;2023-01-20T17:11:45;2.20;99.90
11925;DHT22;6022;48.768;18.608;2023-01-20T17:14:12;2.00;99.90
11925;DHT22;6022;48.768;18.608;2023-01-20T17:16:41;1.90;99.90
11925;DHT22;6022;48.768;18.608;2023-01-20T17:19:08;2.00;99.90
11925;DHT22;6022;48.768;18.608;2023-01-20T17:21:36;1.90;99.90
11925;DHT22;6022;48.768;18.608;2023-01-20T17:24:05;1.80;99.90
11925;DHT22;6022;48.768;18.608;2023-01-20T17:26:33;2.10;99.90
11925;DHT22;6022;48.768;18.608;2023-01-20T17:29:03;2.40;99.90
11925;DHT22;6022;48.768;18.608;2023-01-20T17:31:31;2.00;99.90
11925;DHT22;6022;48.768;18.608;2023-01-20T17:34:02;2.00;99.90
11925;DHT22;6022;48.768;18.608;2023-01-20T17:36:30;2.00;99.90
11925;DHT22;6022;48.768;18.608;2023-01-20T17:39:04;2.00;99.90
11925;DHT22;6022;48.768;18.608;2023-01-20T17:41:33;2.10;99.90
11925;DHT22;6022;48.768;18.608;2023-01-20T17:44:00;2.00;99.90
11925;DHT22;6022;48.768;18.608;2023-01-20T17:46:29;1.90;99.90
11925;DHT22;6022;48.768;18.608;2023-01-20T17:49:01;1.90;99.90
11925;DHT22;6022;48.768;18.608;2023-01-20T17:51:32;1.90;99.90
11925;DHT22;6022;48.768;18.608;2023-01-20T17:53:59;2.00;99.90
11925;DHT22;6022;48.768;18.608;2023-01-20T17:56:29;2.00;99.90
11925;DHT22;6022;48.768;18.608;2023-01-20T17:58:57;1.80;99.90
11925;DHT22;6022;48.768;18.608;2023-01-20T18:01:26;2.10;99.90
11925;DHT22;6022;48.768;18.608;2023-01-20T18:03:56;1.80;99.90
11925;DHT22;6022;48.768;18.608;2023-01-20T18:06:26;1.80;99.90
11925;DHT22;6022;48.768;18.608;2023-01-20T18:08:56;1.90;99.90